Time;durP1;ratioP1;P1;durP2;ratioP2;P2;SDS_P1;SDS_P2;PMS_P1;PMS_P2;Temp;Humidity;BMP_temperature;BMP_pressure;BME280_temperature;BME280_humidity;BME280_pressure;Samples;Min_cycle;Max_cycle;Signal;HPM_P1;HPM_P2
2023/09/09 00:01:40;;;;;;;7.27;4.50;;;;;;;;;;5035507;28;20445;-69
2023/09/09 00:04:06;;;;;;;5.97;4.30;;;;;;;;;;5035250;28;20423;-69
2023/09/09 00:06:32;;;;;;;4.57;4.10;;;;;;;;;;5035237;28;20431;-69
2023/09/09 00:08:58;;;;;;;4.50;4.30;;;;;;;;;;5035454;28;20422;-69
2023/09/09 00:11:24;;;;;;;10.63;5.13;;;;;;;;;;5034993;28;20431;-68
2023/09/09 00:13:51;;;;;;;4.80;4.40;;;;;;;;;;5035590;28;20430;-69
2023/09/09 00:16:18;;;;;;;4.60;4.30;;;;;;;;;;5035424;28;20415;-69
2023/09/09 00:18:44;;;;;;;4.83;4.10;;;;;;;;;;5036025;28;20427;-70
2023/09/09 00:21:10;;;;;;;5.00;4.60;;;;;;;;;;5035172;28;20450;-68
2023/09/09 00:23:36;;;;;;;6.03;4.70;;;;;;;;;;5035127;28;20423;-69
2023/09/09 00:26:02;;;;;;;10.53;4.07;;;;;;;;;;5034973;28;20430;-69
2023/09/09 00:28:28;;;;;;;4.97;4.77;;;;;;;;;;5034036;28;20868;-69
2023/09/09 00:30:54;;;;;;;5.23;4.90;;;;;;;;;;5034995;28;20419;-69
2023/09/09 00:33:20;;;;;;;4.83;4.60;;;;;;;;;;5034823;28;20482;-69
2023/09/09 00:35:46;;;;;;;5.60;5.13;;;;;;;;;;5034864;28;20541;-68
2023/09/09 00:38:13;;;;;;;8.13;5.07;;;;;;;;;;5035148;28;20490;-69
2023/09/09 00:40:42;;;;;;;5.37;4.87;;;;;;;;;;5034495;28;20416;-68
2023/09/09 00:43:08;;;;;;;10.53;5.00;;;;;;;;;;5034768;28;20506;-69
2023/09/09 00:45:35;;;;;;;5.30;5.10;;;;;;;;;;5034820;28;20470;-69
2023/09/09 00:48:01;;;;;;;7.20;5.10;;;;;;;;;;5034558;28;20423;-69
2023/09/09 00:50:28;;;;;;;5.10;4.77;;;;;;;;;;5034564;28;20524;-68
2023/09/09 00:52:54;;;;;;;6.90;4.57;;;;;;;;;;5034256;28;20477;-69
2023/09/09 00:55:23;;;;;;;6.40;4.93;;;;;;;;;;5033344;28;20991;-69
2023/09/09 00:57:49;;;;;;;5.30;4.90;;;;;;;;;;5034145;28;20489;-68
2023/09/09 01:00:17;;;;;;;5.80;5.27;;;;;;;;;;5034044;28;20912;-69
2023/09/09 01:02:43;;;;;;;5.73;5.10;;;;;;;;;;5034288;28;20428;-69
2023/09/09 01:05:09;;;;;;;5.00;4.60;;;;;;;;;;5034032;28;20415;-68
2023/09/09 01:07:45;;;;;;;7.40;5.00;;;;;;;;;;5034373;28;20427;-69
2023/09/09 01:10:12;;;;;;;4.50;4.30;;;;;;;;;;5034192;28;20430;-69
2023/09/09 01:12:39;;;;;;;3.47;3.37;;;;;;;;;;5034238;28;20467;-70
2023/09/09 01:15:06;;;;;;;5.17;4.97;;;;;;;;;;5034141;28;20412;-69
2023/09/09 01:17:32;;;;;;;6.93;4.47;;;;;;;;;;5033892;28;20550;-68
2023/09/09 01:19:59;;;;;;;4.87;4.67;;;;;;;;;;5033759;28;20447;-69
2023/09/09 01:22:25;;;;;;;4.87;4.60;;;;;;;;;;5032474;28;20800;-69
2023/09/09 01:24:51;;;;;;;6.47;4.50;;;;;;;;;;5034030;28;20419;-68
2023/09/09 01:27:17;;;;;;;6.10;4.60;;;;;;;;;;5033842;28;20446;-70
2023/09/09 01:29:43;;;;;;;5.33;4.93;;;;;;;;;;5033610;28;20453;-69
2023/09/09 01:32:09;;;;;;;6.10;4.37;;;;;;;;;;5033497;28;20485;-69
2023/09/09 01:34:35;;;;;;;4.33;4.23;;;;;;;;;;5033777;28;20470;-68
2023/09/09 01:37:01;;;;;;;4.40;4.20;;;;;;;;;;5033567;28;20192;-68
2023/09/09 01:39:27;;;;;;;5.17;4.87;;;;;;;;;;5033465;28;20416;-69
2023/09/09 01:41:53;;;;;;;8.83;4.87;;;;;;;;;;5034019;28;20181;-69
2023/09/09 01:44:19;;;;;;;5.00;4.60;;;;;;;;;;5033965;28;20790;-69
2023/09/09 01:46:45;;;;;;;4.80;4.60;;;;;;;;;;5033318;28;20962;-69
2023/09/09 01:49:11;;;;;;;6.33;5.80;;;;;;;;;;5033210;28;20451;-68
2023/09/09 01:51:37;;;;;;;7.13;4.93;;;;;;;;;;5033378;28;20466;-68
2023/09/09 01:54:03;;;;;;;5.07;4.67;;;;;;;;;;5033770;28;20915;-69
2023/09/09 01:56:29;;;;;;;5.00;4.63;;;;;;;;;;5033743;28;20943;-68
2023/09/09 01:58:55;;;;;;;4.43;4.23;;;;;;;;;;5033139;28;20423;-69
2023/09/09 02:01:21;;;;;;;5.47;5.07;;;;;;;;;;5033074;28;20425;-68
2023/09/09 02:03:47;;;;;;;5.20;4.90;;;;;;;;;;5033060;28;20434;-69
2023/09/09 02:06:13;;;;;;;5.80;5.60;;;;;;;;;;5033260;28;20515;-68
2023/09/09 02:08:39;;;;;;;5.07;4.33;;;;;;;;;;5033260;28;20459;-69
2023/09/09 02:11:05;;;;;;;5.90;5.40;;;;;;;;;;5033224;28;20419;-68
2023/09/09 02:13:31;;;;;;;4.57;4.27;;;;;;;;;;5032877;28;21054;-68
2023/09/09 02:16:07;;;;;;;4.23;3.97;;;;;;;;;;5032789;28;20746;-69
2023/09/09 02:18:33;;;;;;;6.40;5.47;;;;;;;;;;5033153;28;20418;-69
2023/09/09 02:20:59;;;;;;;6.43;4.87;;;;;;;;;;5032832;28;20507;-69
2023/09/09 02:23:27;;;;;;;4.27;4.17;;;;;;;;;;5033180;28;20806;-68
2023/09/09 02:25:53;;;;;;;5.20;4.90;;;;;;;;;;5032952;28;20526;-69
2023/09/09 02:28:19;;;;;;;5.40;5.10;;;;;;;;;;5032794;28;21009;-69
2023/09/09 02:30:45;;;;;;;5.73;5.53;;;;;;;;;;5032724;28;20533;-69
2023/09/09 02:33:11;;;;;;;5.00;4.50;;;;;;;;;;5032948;28;20479;-69
2023/09/09 02:35:41;;;;;;;6.93;5.30;;;;;;;;;;5032933;28;20417;-68
2023/09/09 02:38:07;;;;;;;4.87;4.70;;;;;;;;;;5033246;28;20435;-68
2023/09/09 02:40:33;;;;;;;4.67;4.40;;;;;;;;;;5032609;28;20505;-69
2023/09/09 02:42:59;;;;;;;5.37;4.93;;;;;;;;;;5032889;28;20416;-68
2023/09/09 02:45:25;;;;;;;4.40;4.30;;;;;;;;;;5032574;28;20767;-69
2023/09/09 02:47:51;;;;;;;10.17;4.80;;;;;;;;;;5032860;28;20510;-69
2023/09/09 02:50:17;;;;;;;4.30;4.17;;;;;;;;;;5033962;28;20892;-69
2023/09/09 02:52:43;;;;;;;7.97;4.70;;;;;;;;;;5036514;28;20990;-68
2023/09/09 02:55:09;;;;;;;4.20;4.00;;;;;;;;;;5036326;28;20467;-69
2023/09/09 02:57:35;;;;;;;4.77;4.47;;;;;;;;;;5036744;28;20518;-69
2023/09/09 03:00:01;;;;;;;7.70;4.10;;;;;;;;;;5036477;28;20481;-69
2023/09/09 03:02:27;;;;;;;5.27;4.87;;;;;;;;;;5036447;28;20427;-68
2023/09/09 03:04:53;;;;;;;4.20;4.03;;;;;;;;;;5034998;28;20431;-69
2023/09/09 03:07:20;;;;;;;4.73;4.37;;;;;;;;;;5036586;28;20609;-68
2023/09/09 03:09:46;;;;;;;26.30;4.67;;;;;;;;;;5036446;28;20422;-68
2023/09/09 03:12:12;;;;;;;6.93;4.90;;;;;;;;;;5036035;28;20471;-68
2023/09/09 03:14:38;;;;;;;6.00;5.60;;;;;;;;;;5036712;28;20555;-68
2023/09/09 03:17:04;;;;;;;5.53;5.23;;;;;;;;;;5036150;28;20411;-69
2023/09/09 03:19:30;;;;;;;6.77;5.10;;;;;;;;;;5034674;28;20426;-69
2023/09/09 03:21:57;;;;;;;8.50;5.30;;;;;;;;;;5036073;28;20419;-69
2023/09/09 03:24:23;;;;;;;4.83;4.43;;;;;;;;;;5036292;28;20498;-70
2023/09/09 03:26:49;;;;;;;8.43;5.13;;;;;;;;;;5036204;28;20899;-69
2023/09/09 03:29:15;;;;;;;6.37;5.97;;;;;;;;;;5036371;28;20411;-70
2023/09/09 03:31:41;;;;;;;4.40;4.20;;;;;;;;;;5035806;28;21001;-69
2023/09/09 03:34:07;;;;;;;5.87;5.57;;;;;;;;;;5036076;28;20415;-69
2023/09/09 03:36:33;;;;;;;5.93;5.40;;;;;;;;;;5035929;28;20899;-69
2023/09/09 03:39:03;;;;;;;6.00;5.50;;;;;;;;;;5036050;28;20970;-69
2023/09/09 03:41:29;;;;;;;5.77;5.33;;;;;;;;;;5035869;28;20442;-69
2023/09/09 03:43:55;;;;;;;5.10;4.70;;;;;;;;;;5035907;28;20411;-70
2023/09/09 03:46:21;;;;;;;9.10;4.60;;;;;;;;;;5035906;28;20825;-69
2023/09/09 03:48:47;;;;;;;4.80;4.50;;;;;;;;;;5036018;28;20415;-69
2023/09/09 03:51:13;;;;;;;4.60;4.40;;;;;;;;;;5035459;28;20499;-70
2023/09/09 03:53:39;;;;;;;6.40;5.50;;;;;;;;;;5035966;28;20479;-69
2023/09/09 03:56:05;;;;;;;9.40;5.10;;;;;;;;;;5035270;28;20462;-69
2023/09/09 03:58:31;;;;;;;5.23;5.03;;;;;;;;;;5035477;28;20422;-69
2023/09/09 04:01:04;;;;;;;9.93;5.73;;;;;;;;;;5035428;28;20415;-69
2023/09/09 04:03:33;;;;;;;5.37;5.00;;;;;;;;;;5035446;28;20789;-71
2023/09/09 04:06:00;;;;;;;12.03;4.60;;;;;;;;;;5035209;28;20997;-70
2023/09/09 04:08:28;;;;;;;5.10;4.63;;;;;;;;;;5035235;28;20470;-69
2023/09/09 04:10:54;;;;;;;5.57;5.27;;;;;;;;;;5035377;28;20407;-70
2023/09/09 04:13:20;;;;;;;5.47;4.97;;;;;;;;;;5035261;28;20528;-69
2023/09/09 04:15:46;;;;;;;7.80;4.20;;;;;;;;;;5035358;28;20427;-70
2023/09/09 04:18:12;;;;;;;5.40;4.90;;;;;;;;;;5035008;28;20426;-68
2023/09/09 04:20:38;;;;;;;3.93;3.73;;;;;;;;;;5035193;28;20817;-69
2023/09/09 04:23:05;;;;;;;4.30;4.10;;;;;;;;;;5034923;28;20850;-63
2023/09/09 04:25:31;;;;;;;13.30;5.03;;;;;;;;;;5035171;28;20447;-68
2023/09/09 04:27:56;;;;;;;3.90;3.70;;;;;;;;;;5035093;28;20434;-67
2023/09/09 04:30:22;;;;;;;8.00;4.13;;;;;;;;;;5034918;28;20423;-67
2023/09/09 04:32:48;;;;;;;4.57;4.27;;;;;;;;;;5034785;28;20478;-68
2023/09/09 04:35:14;;;;;;;9.40;4.40;;;;;;;;;;5034905;28;20900;-68
2023/09/09 04:37:40;;;;;;;4.07;3.90;;;;;;;;;;5035121;28;20804;-68
2023/09/09 04:40:10;;;;;;;8.10;5.00;;;;;;;;;;5034973;28;20507;-68
2023/09/09 04:42:36;;;;;;;4.50;4.20;;;;;;;;;;5034761;28;20481;-68
2023/09/09 04:45:03;;;;;;;6.17;5.50;;;;;;;;;;5034403;28;20979;-67
2023/09/09 04:47:29;;;;;;;5.73;5.33;;;;;;;;;;5034699;28;20474;-68
2023/09/09 04:49:56;;;;;;;5.43;5.03;;;;;;;;;;5032942;28;20428;-68
2023/09/09 04:52:22;;;;;;;8.37;5.40;;;;;;;;;;5034211;28;20513;-68
2023/09/09 04:54:49;;;;;;;6.40;5.23;;;;;;;;;;5034238;28;20470;-68
2023/09/09 04:57:15;;;;;;;5.80;4.60;;;;;;;;;;5034474;28;20420;-68
2023/09/09 04:59:41;;;;;;;14.50;5.77;;;;;;;;;;5034351;28;20451;-68
2023/09/09 05:02:07;;;;;;;9.83;6.40;;;;;;;;;;5034057;28;21018;-68
2023/09/09 05:04:33;;;;;;;6.60;6.00;;;;;;;;;;5034303;28;20407;-68
2023/09/09 05:07:00;;;;;;;6.07;5.67;;;;;;;;;;5034027;28;20419;-68
2023/09/09 05:09:27;;;;;;;6.30;5.10;;;;;;;;;;5032608;28;20430;-68
2023/09/09 05:14:56;;;;;;;6.77;6.00;;;;;;;;;;5033963;28;20387;-68
2023/09/09 05:17:22;;;;;;;6.40;5.37;;;;;;;;;;5034075;28;20408;-68
2023/09/09 05:19:48;;;;;;;10.77;5.27;;;;;;;;;;5033942;28;20898;-72
2023/09/09 05:22:14;;;;;;;5.47;5.03;;;;;;;;;;5033933;28;20411;-69
2023/09/09 05:24:40;;;;;;;5.47;5.13;;;;;;;;;;5033789;28;20538;-71
2023/09/09 05:27:06;;;;;;;5.97;5.37;;;;;;;;;;5033892;28;20412;-71
2023/09/09 05:29:32;;;;;;;6.67;5.70;;;;;;;;;;5033717;28;20923;-72
2023/09/09 05:31:58;;;;;;;7.20;5.20;;;;;;;;;;5033554;28;20548;-72
2023/09/09 05:34:23;;;;;;;6.20;5.80;;;;;;;;;;5033469;28;20423;-69
2023/09/09 05:36:50;;;;;;;6.20;5.60;;;;;;;;;;5033689;28;20411;-71
2023/09/09 05:39:17;;;;;;;5.77;5.53;;;;;;;;;;5032288;28;20189;-70
2023/09/09 05:41:43;;;;;;;11.30;6.30;;;;;;;;;;5033513;28;20455;-71
2023/09/09 05:44:09;;;;;;;7.23;5.63;;;;;;;;;;5034184;28;20427;-72
2023/09/09 05:46:35;;;;;;;6.50;6.07;;;;;;;;;;5033660;28;20415;-71
2023/09/09 05:49:01;;;;;;;7.70;5.43;;;;;;;;;;5033313;28;20454;-71
2023/09/09 05:51:27;;;;;;;6.43;6.03;;;;;;;;;;5033456;28;20498;-69
2023/09/09 05:53:53;;;;;;;5.13;4.73;;;;;;;;;;5033328;28;20962;-71
2023/09/09 05:56:19;;;;;;;6.10;5.60;;;;;;;;;;5033219;28;20788;-72
2023/09/09 05:58:45;;;;;;;5.20;4.80;;;;;;;;;;5033742;28;20423;-72
2023/09/09 06:01:11;;;;;;;9.80;6.80;;;;;;;;;;5033289;28;20510;-72
2023/09/09 06:03:37;;;;;;;8.03;4.73;;;;;;;;;;5033352;28;20419;-71
2023/09/09 06:06:03;;;;;;;5.27;4.97;;;;;;;;;;5033381;28;20434;-72
2023/09/09 06:08:29;;;;;;;18.57;6.73;;;;;;;;;;5033069;28;20423;-73
2023/09/09 06:10:55;;;;;;;8.83;7.63;;;;;;;;;;5033283;28;20847;-72
2023/09/09 06:13:21;;;;;;;21.43;8.50;;;;;;;;;;5033115;28;21067;-71
2023/09/09 06:15:47;;;;;;;11.03;5.53;;;;;;;;;;5033456;28;20454;-70
2023/09/09 06:18:13;;;;;;;15.70;5.57;;;;;;;;;;5033055;28;20427;-73
2023/09/09 06:20:39;;;;;;;7.13;5.07;;;;;;;;;;5033197;28;20423;-71
2023/09/09 06:23:05;;;;;;;6.00;5.43;;;;;;;;;;5032838;28;20427;-70
2023/09/09 06:25:32;;;;;;;10.37;4.73;;;;;;;;;;5032504;28;20420;-71
2023/09/09 06:27:58;;;;;;;4.83;4.40;;;;;;;;;;5033086;28;20216;-71
2023/09/09 06:30:23;;;;;;;8.07;4.80;;;;;;;;;;5032726;28;20439;-71
2023/09/09 06:32:49;;;;;;;7.60;5.70;;;;;;;;;;5032362;28;20478;-72
2023/09/09 06:35:15;;;;;;;5.30;5.00;;;;;;;;;;5032974;28;20464;-71
2023/09/09 06:37:41;;;;;;;5.53;5.23;;;;;;;;;;5032784;28;20923;-70
2023/09/09 06:40:08;;;;;;;6.10;5.53;;;;;;;;;;5032683;28;20494;-71
2023/09/09 06:42:34;;;;;;;6.10;5.50;;;;;;;;;;5032637;28;20423;-72
2023/09/09 06:45:00;;;;;;;6.30;5.73;;;;;;;;;;5032837;28;20411;-72
2023/09/09 06:47:26;;;;;;;8.73;5.90;;;;;;;;;;5032516;28;20469;-70
2023/09/09 06:49:52;;;;;;;4.73;4.43;;;;;;;;;;5032815;28;20912;-70
2023/09/09 06:52:18;;;;;;;6.40;5.93;;;;;;;;;;5032715;28;20497;-71
2023/09/09 06:54:44;;;;;;;6.83;6.20;;;;;;;;;;5032505;28;20471;-71
2023/09/09 06:57:10;;;;;;;5.93;5.43;;;;;;;;;;5032615;28;20511;-70
2023/09/09 06:59:36;;;;;;;8.80;7.90;;;;;;;;;;5032552;28;20434;-71
2023/09/09 07:02:03;;;;;;;7.03;6.43;;;;;;;;;;5047552;28;20437;-69
2023/09/09 07:04:29;;;;;;;6.77;6.00;;;;;;;;;;5032493;28;20446;-70
2023/09/09 07:06:55;;;;;;;9.80;6.40;;;;;;;;;;5032480;28;20784;-71
2023/09/09 07:09:21;;;;;;;7.43;6.93;;;;;;;;;;5032162;28;20764;-72
2023/09/09 07:11:47;;;;;;;6.77;6.27;;;;;;;;;;5032113;28;20499;-72
2023/09/09 07:14:13;;;;;;;7.10;6.50;;;;;;;;;;5032060;28;20763;-72
2023/09/09 07:16:39;;;;;;;6.07;5.70;;;;;;;;;;5032168;28;20411;-70
2023/09/09 07:19:05;;;;;;;6.73;5.90;;;;;;;;;;5032240;28;20903;-70
2023/09/09 07:21:31;;;;;;;7.20;6.30;;;;;;;;;;5032441;28;20660;-71
2023/09/09 07:23:57;;;;;;;5.60;5.40;;;;;;;;;;5032502;28;20431;-71
2023/09/09 07:26:23;;;;;;;7.10;6.70;;;;;;;;;;5032336;28;20515;-71
2023/09/09 07:28:49;;;;;;;6.93;6.40;;;;;;;;;;5032446;28;20473;-71
2023/09/09 07:31:15;;;;;;;8.63;7.20;;;;;;;;;;5032036;28;20415;-70
2023/09/09 07:33:40;;;;;;;6.30;5.80;;;;;;;;;;5032071;28;20471;-69
2023/09/09 07:36:06;;;;;;;6.87;6.40;;;;;;;;;;5032689;28;20419;-70
2023/09/09 07:38:32;;;;;;;9.30;6.23;;;;;;;;;;5036042;28;20447;-69
2023/09/09 07:40:59;;;;;;;7.43;6.53;;;;;;;;;;5035500;28;20498;-72
2023/09/09 07:43:25;;;;;;;7.43;6.70;;;;;;;;;;5035825;28;20477;-71
2023/09/09 07:45:51;;;;;;;6.53;6.10;;;;;;;;;;5035886;28;20819;-71
2023/09/09 07:48:21;;;;;;;11.80;6.10;;;;;;;;;;5036041;28;20415;-72
2023/09/09 07:53:52;;;;;;;11.33;7.43;;;;;;;;;;5035136;28;20558;-70
2023/09/09 07:56:18;;;;;;;6.60;6.07;;;;;;;;;;5035450;28;20392;-70
2023/09/09 07:58:43;;;;;;;7.40;5.80;;;;;;;;;;5035309;28;20430;-72
2023/09/09 08:01:11;;;;;;;25.83;6.97;;;;;;;;;;5035469;28;20415;-70
2023/09/09 08:03:37;;;;;;;12.53;5.93;;;;;;;;;;5035213;28;20971;-71
2023/09/09 08:06:06;;;;;;;7.93;5.80;;;;;;;;;;5035225;28;20459;-70
2023/09/09 08:08:32;;;;;;;6.00;5.60;;;;;;;;;;5035353;28;20427;-70
2023/09/09 08:10:58;;;;;;;4.53;4.30;;;;;;;;;;5034999;28;20914;-72
2023/09/09 08:13:25;;;;;;;7.90;6.70;;;;;;;;;;5035042;28;20474;-70
2023/09/09 08:15:51;;;;;;;13.70;5.87;;;;;;;;;;5034929;28;20457;-69
2023/09/09 08:18:17;;;;;;;6.37;6.07;;;;;;;;;;5034900;28;20903;-70
2023/09/09 08:20:43;;;;;;;5.70;5.40;;;;;;;;;;5034887;28;20418;-70
2023/09/09 08:23:09;;;;;;;9.80;6.60;;;;;;;;;;5035018;28;20423;-71
2023/09/09 08:25:35;;;;;;;6.63;5.80;;;;;;;;;;5034836;28;20455;-69
2023/09/09 08:28:03;;;;;;;17.00;5.93;;;;;;;;;;5034837;28;20521;-70
2023/09/09 08:30:29;;;;;;;4.53;4.33;;;;;;;;;;5034720;28;20514;-70
2023/09/09 08:32:56;;;;;;;16.27;6.00;;;;;;;;;;5034478;28;20474;-70
2023/09/09 08:35:22;;;;;;;6.40;6.00;;;;;;;;;;5034717;28;20451;-70
2023/09/09 08:37:48;;;;;;;6.67;6.07;;;;;;;;;;5034962;28;20447;-69
2023/09/09 08:40:14;;;;;;;9.00;6.40;;;;;;;;;;5034799;28;20411;-63
2023/09/09 08:42:52;;;;;;;7.00;6.30;;;;;;;;;;5034492;28;20498;-63
2023/09/09 08:45:33;;;;;;;7.17;6.07;;;;;;;;;;5034734;28;20403;-70
2023/09/09 08:47:59;;;;;;;8.83;6.17;;;;;;;;;;5033601;28;20475;-70
2023/09/09 08:50:25;;;;;;;7.10;6.30;;;;;;;;;;5034275;28;20922;-69
2023/09/09 08:52:53;;;;;;;9.83;5.90;;;;;;;;;;5034312;28;20481;-69
2023/09/09 08:55:20;;;;;;;7.80;5.73;;;;;;;;;;5034141;28;20521;-70
2023/09/09 08:57:46;;;;;;;11.33;5.70;;;;;;;;;;5034584;28;20474;-70
2023/09/09 09:00:15;;;;;;;7.37;6.50;;;;;;;;;;5034735;28;20416;-70
2023/09/09 09:02:41;;;;;;;15.33;6.60;;;;;;;;;;5034337;28;20785;-70
2023/09/09 09:05:08;;;;;;;13.00;6.27;;;;;;;;;;5034331;28;20550;-71
2023/09/09 09:07:35;;;;;;;6.87;6.30;;;;;;;;;;5034096;28;20931;-70
2023/09/09 09:10:01;;;;;;;6.87;6.37;;;;;;;;;;5034316;28;20419;-70
2023/09/09 09:12:28;;;;;;;11.20;6.47;;;;;;;;;;5034195;28;20470;-69
2023/09/09 09:14:54;;;;;;;6.80;6.20;;;;;;;;;;5032629;28;20438;-69
2023/09/09 09:17:23;;;;;;;6.43;5.50;;;;;;;;;;5034075;28;20435;-70
2023/09/09 09:19:49;;;;;;;8.70;6.30;;;;;;;;;;5034091;28;20502;-70
2023/09/09 09:22:16;;;;;;;12.53;6.40;;;;;;;;;;5033759;28;20478;-69
2023/09/09 09:24:43;;;;;;;9.77;6.33;;;;;;;;;;5034006;28;20423;-70
2023/09/09 09:27:13;;;;;;;4.27;4.13;;;;;;;;;;5033951;28;20850;-70
2023/09/09 09:29:40;;;;;;;4.57;4.17;;;;;;;;;;5033859;28;20477;-70
2023/09/09 09:32:06;;;;;;;6.30;5.90;;;;;;;;;;5033518;28;20459;-69
2023/09/09 09:34:33;;;;;;;7.87;7.30;;;;;;;;;;5033714;28;20489;-69
2023/09/09 09:36:59;;;;;;;8.57;7.67;;;;;;;;;;5034562;28;20468;-69
2023/09/09 09:39:31;;;;;;;5.60;5.10;;;;;;;;;;5033684;28;20507;-69
2023/09/09 09:41:59;;;;;;;7.03;6.47;;;;;;;;;;5033736;28;20987;-69
2023/09/09 09:44:25;;;;;;;6.13;5.60;;;;;;;;;;5033531;28;20419;-69
2023/09/09 09:47:08;;;;;;;7.20;6.50;;;;;;;;;;5033653;28;20419;-69
2023/09/09 09:49:38;;;;;;;5.30;5.00;;;;;;;;;;5033129;28;20676;-69
2023/09/09 09:52:04;;;;;;;6.77;6.27;;;;;;;;;;5033120;28;20506;-69
2023/09/09 09:54:32;;;;;;;13.77;6.00;;;;;;;;;;5033177;28;20876;-69
2023/09/09 09:57:02;;;;;;;12.23;6.33;;;;;;;;;;5033613;28;20776;-69
2023/09/09 09:59:38;;;;;;;7.53;6.83;;;;;;;;;;5033011;28;20424;-69
2023/09/09 10:02:03;;;;;;;4.87;4.63;;;;;;;;;;5033356;28;20407;-69
2023/09/09 10:04:38;;;;;;;7.33;6.70;;;;;;;;;;5032961;28;20415;-68
2023/09/09 10:07:06;;;;;;;25.93;6.43;;;;;;;;;;5033053;28;20484;-69
2023/09/09 10:09:37;;;;;;;6.90;6.27;;;;;;;;;;5033004;28;20427;-69
2023/09/09 10:12:11;;;;;;;7.43;6.70;;;;;;;;;;5032839;28;20582;-69
2023/09/09 10:14:38;;;;;;;11.80;7.00;;;;;;;;;;5033290;28;20414;-68
2023/09/09 10:17:08;;;;;;;7.07;6.40;;;;;;;;;;5033049;28;20891;-69
2023/09/09 10:19:35;;;;;;;7.17;6.20;;;;;;;;;;5033007;28;20419;-72
2023/09/09 10:22:02;;;;;;;12.10;6.80;;;;;;;;;;5033024;28;20775;-69
2023/09/09 10:24:29;;;;;;;4.87;4.57;;;;;;;;;;5032792;28;20407;-69
2023/09/09 10:26:57;;;;;;;12.20;6.70;;;;;;;;;;5033047;28;20418;-69
2023/09/09 10:29:23;;;;;;;9.23;6.13;;;;;;;;;;5032883;28;20399;-69
2023/09/09 10:31:49;;;;;;;6.50;5.70;;;;;;;;;;5032778;28;20431;-69
2023/09/09 10:34:15;;;;;;;6.60;6.30;;;;;;;;;;5032448;28;20477;-70
2023/09/09 10:36:41;;;;;;;7.43;5.67;;;;;;;;;;5032757;28;20415;-69
2023/09/09 10:39:07;;;;;;;8.67;6.13;;;;;;;;;;5032946;28;20415;-69
2023/09/09 10:41:34;;;;;;;6.60;6.00;;;;;;;;;;5032438;28;20506;-69
2023/09/09 10:44:00;;;;;;;5.30;4.90;;;;;;;;;;5032516;28;20415;-60
2023/09/09 10:46:39;;;;;;;6.63;5.90;;;;;;;;;;5032297;28;20442;-70
2023/09/09 10:49:05;;;;;;;22.80;6.43;;;;;;;;;;5032019;28;20411;-70
2023/09/09 10:51:45;;;;;;;6.77;6.20;;;;;;;;;;5032475;28;20415;-69
2023/09/09 10:54:12;;;;;;;5.87;5.57;;;;;;;;;;5032120;28;20553;-69
2023/09/09 10:56:49;;;;;;;10.50;5.77;;;;;;;;;;5032526;28;20407;-68
2023/09/09 10:59:21;;;;;;;5.33;4.83;;;;;;;;;;5032107;28;20980;-69
2023/09/09 11:02:08;;;;;;;7.57;4.77;;;;;;;;;;5032253;28;20456;-70
2023/09/09 11:04:36;;;;;;;4.53;4.33;;;;;;;;;;5032693;28;20469;-71
2023/09/09 11:07:10;;;;;;;7.10;5.50;;;;;;;;;;5032530;28;20471;-69
2023/09/09 11:09:37;;;;;;;6.50;5.30;;;;;;;;;;5032411;28;20788;-70
2023/09/09 11:12:13;;;;;;;6.03;5.70;;;;;;;;;;5034061;28;20891;-71
2023/09/09 11:14:42;;;;;;;8.33;5.70;;;;;;;;;;5036372;28;20518;-69
2023/09/09 11:17:10;;;;;;;10.80;6.40;;;;;;;;;;5036000;28;20407;-69
2023/09/09 11:19:36;;;;;;;16.60;6.00;;;;;;;;;;5036166;28;20819;-69
2023/09/09 11:22:03;;;;;;;6.83;5.80;;;;;;;;;;5036405;28;20415;-69
2023/09/09 11:24:29;;;;;;;5.80;5.37;;;;;;;;;;5036254;28;20419;-69
2023/09/09 11:26:55;;;;;;;6.57;5.97;;;;;;;;;;5035937;28;20782;-70
2023/09/09 11:29:22;;;;;;;4.70;4.60;;;;;;;;;;5036080;28;20638;-70
2023/09/09 11:31:48;;;;;;;7.10;4.50;;;;;;;;;;5035559;28;20427;-70
2023/09/09 11:34:14;;;;;;;9.00;5.83;;;;;;;;;;5035974;28;20419;-69
2023/09/09 11:36:41;;;;;;;10.87;6.23;;;;;;;;;;5035733;28;20434;-69
2023/09/09 11:39:07;;;;;;;8.87;6.73;;;;;;;;;;5035724;28;20427;-69
2023/09/09 11:41:34;;;;;;;5.73;5.37;;;;;;;;;;5035585;28;20411;-70
2023/09/09 11:44:02;;;;;;;13.67;6.40;;;;;;;;;;5036185;28;20423;-69
2023/09/09 11:46:30;;;;;;;7.97;7.10;;;;;;;;;;5035623;28;20782;-69
2023/09/09 11:48:56;;;;;;;14.03;6.00;;;;;;;;;;5035417;28;20430;-69
2023/09/09 11:51:23;;;;;;;7.27;6.20;;;;;;;;;;5035472;28;20568;-69
2023/09/09 11:53:49;;;;;;;6.70;6.00;;;;;;;;;;5035469;28;20525;-69
2023/09/09 11:56:15;;;;;;;4.90;4.60;;;;;;;;;;5035706;28;20418;-69
2023/09/09 11:58:44;;;;;;;12.40;6.37;;;;;;;;;;5035706;28;20506;-69
2023/09/09 12:01:10;;;;;;;6.60;6.10;;;;;;;;;;5035445;28;20422;-69
2023/09/09 12:03:36;;;;;;;7.53;5.93;;;;;;;;;;5035529;28;20420;-69
2023/09/09 12:06:03;;;;;;;4.17;3.97;;;;;;;;;;5035549;28;20420;-69
2023/09/09 12:08:30;;;;;;;11.30;5.43;;;;;;;;;;5035259;28;20549;-69
2023/09/09 12:10:57;;;;;;;5.67;5.27;;;;;;;;;;5036095;28;20427;-69
2023/09/09 12:13:23;;;;;;;5.33;5.00;;;;;;;;;;5035093;28;20819;-68
2023/09/09 12:15:49;;;;;;;5.40;5.07;;;;;;;;;;5035209;28;20811;-69
2023/09/09 12:18:15;;;;;;;12.87;5.30;;;;;;;;;;5035275;28;20829;-69
2023/09/09 12:21:00;;;;;;;14.80;5.40;;;;;;;;;;5034940;28;20418;-68
2023/09/09 12:23:27;;;;;;;9.63;5.20;;;;;;;;;;5033595;28;20411;-69
2023/09/09 12:25:54;;;;;;;5.17;4.70;;;;;;;;;;5035601;28;20416;-69
2023/09/09 12:28:20;;;;;;;14.20;5.10;;;;;;;;;;5035097;28;20419;-69
2023/09/09 12:30:46;;;;;;;5.20;4.80;;;;;;;;;;5035251;28;20419;-68
2023/09/09 12:33:17;;;;;;;8.90;5.53;;;;;;;;;;5034893;28;20470;-69
2023/09/09 12:35:44;;;;;;;10.90;5.70;;;;;;;;;;5034689;28;20895;-69
2023/09/09 12:38:10;;;;;;;6.13;5.50;;;;;;;;;;5034932;28;20744;-70
2023/09/09 12:40:45;;;;;;;4.93;4.70;;;;;;;;;;5034567;28;20415;-69
2023/09/09 12:43:11;;;;;;;5.60;5.13;;;;;;;;;;5035013;28;20411;-69
2023/09/09 12:45:58;;;;;;;5.13;4.87;;;;;;;;;;5034598;28;20407;-68
2023/09/09 12:48:24;;;;;;;4.80;4.60;;;;;;;;;;5033853;28;20431;-69
2023/09/09 12:50:50;;;;;;;7.30;4.63;;;;;;;;;;5034598;28;20566;-69
2023/09/09 12:53:18;;;;;;;7.60;5.57;;;;;;;;;;5034251;28;20466;-69
2023/09/09 12:55:44;;;;;;;4.87;4.17;;;;;;;;;;5034217;28;20467;-69
2023/09/09 12:58:10;;;;;;;5.83;5.37;;;;;;;;;;5034290;28;20945;-69
2023/09/09 13:00:36;;;;;;;4.83;4.53;;;;;;;;;;5034155;28;21000;-69
2023/09/09 13:03:02;;;;;;;5.07;4.30;;;;;;;;;;5034564;28;20442;-69
2023/09/09 13:05:28;;;;;;;4.40;4.20;;;;;;;;;;5034092;28;20808;-68
2023/09/09 13:07:55;;;;;;;5.77;5.20;;;;;;;;;;5034330;28;20427;-71
2023/09/09 13:10:21;;;;;;;6.90;4.97;;;;;;;;;;5034127;28;20420;-68
2023/09/09 13:12:47;;;;;;;3.30;3.20;;;;;;;;;;5034400;28;20466;-71
2023/09/09 13:15:13;;;;;;;7.60;4.33;;;;;;;;;;5034753;28;20412;-69
2023/09/09 13:17:39;;;;;;;4.97;4.67;;;;;;;;;;5034815;28;20423;-70
2023/09/09 13:20:09;;;;;;;4.43;4.20;;;;;;;;;;5034052;28;20526;-68
2023/09/09 13:22:36;;;;;;;4.43;4.10;;;;;;;;;;5033983;28;20477;-70
2023/09/09 13:25:02;;;;;;;5.20;4.90;;;;;;;;;;5033005;28;20415;-71
2023/09/09 13:27:28;;;;;;;10.00;4.30;;;;;;;;;;5033607;28;20783;-72
2023/09/09 13:29:54;;;;;;;7.03;4.10;;;;;;;;;;5033415;28;20495;-71
2023/09/09 13:32:20;;;;;;;4.97;4.47;;;;;;;;;;5033388;28;20466;-71
2023/09/09 13:34:46;;;;;;;6.47;4.10;;;;;;;;;;5033379;28;20904;-69
2023/09/09 13:37:12;;;;;;;5.40;4.50;;;;;;;;;;5032590;28;20772;-69
2023/09/09 13:39:38;;;;;;;4.73;4.50;;;;;;;;;;5033403;28;20885;-70
2023/09/09 13:42:04;;;;;;;4.77;4.20;;;;;;;;;;5033409;28;20477;-70
2023/09/09 13:44:30;;;;;;;4.83;4.67;;;;;;;;;;5032427;28;20439;-69
2023/09/09 13:46:56;;;;;;;10.97;4.30;;;;;;;;;;5033216;28;20449;-70
2023/09/09 13:49:22;;;;;;;5.00;4.50;;;;;;;;;;5031887;28;20998;-69
2023/09/09 13:51:48;;;;;;;7.67;5.20;;;;;;;;;;5033451;28;20461;-69
2023/09/09 13:54:14;;;;;;;4.97;3.67;;;;;;;;;;5032989;28;20474;-70
2023/09/09 13:56:40;;;;;;;6.17;4.37;;;;;;;;;;5033498;28;20422;-69
2023/09/09 13:59:06;;;;;;;10.83;4.37;;;;;;;;;;5033163;28;20869;-70
2023/09/09 14:01:32;;;;;;;4.43;4.23;;;;;;;;;;5033257;28;20506;-67
2023/09/09 14:03:58;;;;;;;5.07;3.90;;;;;;;;;;5033250;28;20443;-67
2023/09/09 14:06:25;;;;;;;3.83;3.73;;;;;;;;;;5033290;28;20423;-67
2023/09/09 14:08:51;;;;;;;6.73;4.70;;;;;;;;;;5033040;28;20419;-67
2023/09/09 14:11:17;;;;;;;6.87;4.83;;;;;;;;;;5032725;28;20419;-67
2023/09/09 14:13:43;;;;;;;2.87;2.77;;;;;;;;;;5032900;28;20471;-67
2023/09/09 14:16:09;;;;;;;3.87;3.77;;;;;;;;;;5032713;28;20412;-72
2023/09/09 14:18:37;;;;;;;4.40;4.30;;;;;;;;;;5032444;28;20819;-69
2023/09/09 14:21:03;;;;;;;4.10;3.93;;;;;;;;;;5033012;28;20426;-71
2023/09/09 14:23:29;;;;;;;4.37;4.17;;;;;;;;;;5032925;28;20430;-72
2023/09/09 14:25:55;;;;;;;4.33;4.10;;;;;;;;;;5033032;28;20498;-70
2023/09/09 14:28:21;;;;;;;4.80;4.70;;;;;;;;;;5032800;28;20477;-69
2023/09/09 14:30:47;;;;;;;4.70;4.40;;;;;;;;;;5032468;28;20415;-69
2023/09/09 14:33:13;;;;;;;4.93;4.60;;;;;;;;;;5032777;28;20478;-68
2023/09/09 14:35:39;;;;;;;4.27;3.97;;;;;;;;;;5032425;28;20426;-68
2023/09/09 14:38:05;;;;;;;6.10;4.03;;;;;;;;;;5032188;28;20419;-69
2023/09/09 14:40:31;;;;;;;4.03;3.83;;;;;;;;;;5032799;28;20415;-71
2023/09/09 14:42:57;;;;;;;4.53;4.33;;;;;;;;;;5032560;28;20420;-71
2023/09/09 14:45:23;;;;;;;4.33;4.00;;;;;;;;;;5032856;28;20573;-69